createdAt,value
2022-08-03T00:00:56.629Z,22.73
2022-08-03T00:03:23.948Z,22.73
2022-08-03T00:06:03.884Z,22.71
2022-08-03T00:08:32.401Z,22.70
2022-08-03T00:11:07.763Z,22.74
2022-08-03T00:13:35.151Z,22.71
2022-08-03T00:16:04.464Z,22.71
2022-08-03T00:18:32.366Z,22.74
2022-08-03T00:21:02.434Z,22.82
2022-08-03T00:23:50.901Z,22.74
2022-08-03T00:26:17.683Z,22.59
2022-08-03T00:28:44.418Z,22.53
2022-08-03T00:31:13.462Z,22.53
2022-08-03T00:33:59.673Z,22.52
2022-08-03T00:36:27.980Z,22.52
2022-08-03T00:38:55.520Z,22.53
2022-08-03T00:41:22.883Z,22.52
2022-08-03T00:43:49.959Z,22.49
2022-08-03T00:46:21.367Z,22.53
2022-08-03T00:48:52.379Z,22.56
2022-08-03T00:51:20.158Z,22.52
2022-08-03T00:53:46.867Z,22.59
2022-08-03T00:56:15.374Z,22.48
2022-08-03T00:58:44.777Z,22.38
2022-08-03T01:01:12.655Z,22.32
2022-08-03T01:03:39.887Z,22.30
2022-08-03T01:06:25.582Z,22.25
2022-08-03T01:09:40.951Z,22.21
2022-08-03T01:12:18.959Z,22.25
2022-08-03T01:15:10.126Z,22.22
2022-08-03T01:17:51.519Z,22.19
2022-08-03T01:20:22.251Z,22.18
2022-08-03T01:23:07.872Z,22.14
2022-08-03T01:25:59.866Z,22.16
2022-08-03T01:28:58.823Z,22.26
2022-08-03T01:31:32.550Z,22.32
2022-08-03T01:34:03.933Z,22.38
2022-08-03T01:36:51.300Z,22.35
2022-08-03T01:39:43.127Z,22.23
2022-08-03T01:42:12.843Z,22.12
2022-08-03T01:44:41.799Z,22.06
2022-08-03T01:47:10.283Z,22.04
2022-08-03T01:49:40.911Z,22.04
2022-08-03T01:52:07.946Z,22.02
2022-08-03T01:54:37.748Z,22.06
2022-08-03T01:57:05.450Z,22.04
2022-08-03T01:59:35.218Z,22.05
2022-08-03T02:02:25.298Z,22.07
2022-08-03T02:04:54.399Z,22.01
2022-08-03T02:07:21.313Z,21.94
2022-08-03T02:09:52.743Z,21.99
2022-08-03T02:12:22.474Z,22.04
2022-08-03T02:14:50.172Z,22.01
2022-08-03T02:17:16.975Z,21.95
2022-08-03T02:19:44.634Z,21.92
2022-08-03T02:22:14.303Z,21.94
2022-08-03T02:24:41.468Z,22.00
2022-08-03T02:27:19.924Z,22.05
2022-08-03T02:29:51.096Z,22.00
2022-08-03T02:32:24.234Z,21.91
2022-08-03T02:34:53.023Z,21.81
2022-08-03T02:37:21.663Z,21.80
2022-08-03T02:39:53.385Z,21.81
2022-08-03T02:42:22.188Z,21.71
2022-08-03T02:44:51.552Z,21.62
2022-08-03T02:47:21.491Z,21.60
2022-08-03T02:49:52.322Z,21.61
2022-08-03T02:52:26.711Z,21.63
2022-08-03T02:54:59.071Z,21.63
2022-08-03T02:57:30.695Z,21.55
2022-08-03T02:59:58.997Z,21.46
2022-08-03T03:02:26.722Z,21.40
2022-08-03T03:05:52.191Z,21.40
2022-08-03T03:07:52.879Z,21.29
2022-08-03T03:10:23.279Z,21.22
2022-08-03T03:12:56.709Z,21.16
2022-08-03T03:15:28.400Z,21.19
2022-08-03T03:17:56.925Z,21.20
2022-08-03T03:20:29.516Z,21.15
2022-08-03T03:23:00.305Z,21.11
2022-08-03T03:25:30.772Z,21.00
2022-08-03T03:27:58.275Z,20.92
2022-08-03T03:30:26.469Z,20.95
2022-08-03T03:32:54.397Z,20.94
2022-08-03T03:35:21.495Z,20.97
2022-08-03T03:37:48.265Z,21.07
2022-08-03T03:40:15.284Z,21.18
2022-08-03T03:42:44.339Z,21.22
2022-08-03T03:45:12.175Z,21.19
2022-08-03T03:47:38.960Z,21.11
2022-08-03T03:50:07.265Z,21.05
2022-08-03T03:52:34.699Z,20.97
2022-08-03T03:55:01.871Z,21.00
2022-08-03T03:57:29.607Z,20.96
2022-08-03T03:59:59.338Z,20.93
2022-08-03T04:02:27.792Z,20.92
2022-08-03T04:05:13.075Z,20.98
2022-08-03T04:08:16.747Z,20.99
2022-08-03T04:11:00.638Z,20.94
2022-08-03T04:13:44.221Z,20.81
2022-08-03T04:16:14.000Z,20.89
2022-08-03T04:18:42.425Z,20.93
2022-08-03T04:21:13.157Z,20.98
2022-08-03T04:23:45.297Z,20.89
2022-08-03T04:26:15.237Z,20.90
2022-08-03T04:28:46.139Z,20.93
2022-08-03T04:31:14.743Z,20.92
2022-08-03T04:33:43.767Z,20.84
2022-08-03T04:36:14.790Z,20.79
2022-08-03T04:38:56.149Z,20.78
2022-08-03T04:41:25.511Z,20.77
2022-08-03T04:43:54.987Z,20.75
2022-08-03T04:46:23.875Z,20.74
2022-08-03T04:48:51.454Z,20.73
2022-08-03T04:51:18.579Z,20.75
2022-08-03T04:53:45.556Z,20.92
2022-08-03T04:56:12.561Z,21.06
2022-08-03T04:58:39.457Z,21.14
2022-08-03T05:01:06.249Z,21.13
2022-08-03T05:03:33.106Z,21.12
2022-08-03T05:06:09.953Z,21.16
2022-08-03T05:08:45.942Z,21.21
2022-08-03T05:11:15.828Z,21.26
2022-08-03T05:13:42.934Z,21.27
2022-08-03T05:16:09.715Z,21.32
2022-08-03T05:18:36.372Z,21.37
2022-08-03T05:21:03.764Z,21.45
2022-08-03T05:23:30.890Z,21.52
2022-08-03T05:25:57.841Z,21.56
2022-08-03T05:28:24.704Z,21.57
2022-08-03T05:30:51.444Z,21.61
2022-08-03T05:33:18.318Z,21.70
2022-08-03T05:36:01.934Z,21.74
2022-08-03T05:38:34.970Z,21.82
2022-08-03T05:41:22.000Z,21.88
2022-08-03T05:43:52.132Z,21.96
2022-08-03T05:46:19.101Z,22.01
2022-08-03T05:48:45.858Z,22.09
2022-08-03T05:51:13.763Z,22.14
2022-08-03T05:53:42.337Z,22.22
2022-08-03T05:56:14.730Z,22.29
2022-08-03T05:58:47.498Z,22.39
2022-08-03T06:01:16.473Z,22.49
2022-08-03T06:03:43.226Z,22.55
2022-08-03T06:06:11.703Z,22.62
2022-08-03T06:08:39.028Z,22.71
2022-08-03T06:11:05.902Z,22.78
2022-08-03T06:13:32.662Z,22.87
2022-08-03T06:15:59.432Z,22.95
2022-08-03T06:18:26.470Z,23.02
2022-08-03T06:20:54.063Z,23.10
2022-08-03T06:23:26.291Z,23.27
2022-08-03T06:26:10.127Z,23.59
2022-08-03T06:28:52.893Z,23.76
2022-08-03T06:31:24.044Z,23.80
2022-08-03T06:34:32.434Z,23.77
2022-08-03T06:36:38.034Z,23.79
2022-08-03T06:39:04.806Z,23.82
2022-08-03T06:41:38.008Z,23.87
2022-08-03T06:44:08.421Z,23.97
2022-08-03T06:46:37.053Z,24.24
2022-08-03T06:49:03.888Z,24.60
2022-08-03T06:52:05.971Z,24.88
2022-08-03T06:54:18.277Z,25.17
2022-08-03T06:56:44.967Z,25.44
2022-08-03T07:00:06.594Z,25.71
2022-08-03T07:01:58.468Z,25.94
2022-08-03T07:04:25.190Z,26.15
2022-08-03T07:06:52.518Z,26.48
2022-08-03T07:09:19.219Z,26.88
2022-08-03T07:11:45.915Z,27.15
2022-08-03T07:14:12.653Z,27.40
2022-08-03T07:16:39.487Z,27.67
2022-08-03T07:19:06.193Z,27.87
2022-08-03T07:21:32.843Z,28.14
2022-08-03T07:23:59.540Z,28.47
2022-08-03T07:26:26.246Z,28.69
2022-08-03T07:28:52.943Z,28.94
2022-08-03T07:31:19.698Z,29.19
2022-08-03T07:33:46.479Z,29.51
2022-08-03T07:36:13.497Z,29.70
2022-08-03T07:38:40.437Z,29.86
2022-08-03T07:41:07.152Z,30.08
2022-08-03T07:43:33.997Z,30.27
2022-08-03T07:46:00.866Z,30.36
2022-08-03T07:48:27.633Z,30.61
2022-08-03T07:50:54.304Z,30.85
2022-08-03T07:53:21.122Z,31.04
2022-08-03T07:55:47.819Z,31.06
2022-08-03T07:58:21.918Z,31.12
2022-08-03T08:00:53.754Z,31.22
2022-08-03T08:03:22.009Z,31.24
2022-08-03T08:05:49.481Z,31.28
2022-08-03T08:08:16.283Z,31.32
2022-08-03T08:10:43.241Z,31.46
2022-08-03T08:13:25.518Z,31.63
2022-08-03T08:15:52.451Z,31.70
2022-08-03T08:18:19.208Z,31.68
2022-08-03T08:20:46.027Z,31.79
2022-08-03T08:23:38.664Z,31.98
2022-08-03T08:25:59.495Z,32.25
2022-08-03T08:28:32.875Z,32.52
2022-08-03T08:31:00.683Z,32.74
2022-08-03T08:33:42.236Z,32.94
2022-08-03T08:36:15.716Z,33.15
2022-08-03T08:38:44.701Z,33.43
2022-08-03T08:41:13.285Z,33.71
2022-08-03T08:43:40.679Z,33.95
2022-08-03T08:46:08.574Z,34.03
2022-08-03T08:48:40.526Z,33.99
2022-08-03T08:51:09.768Z,34.02
2022-08-03T08:53:38.499Z,34.04
2022-08-03T08:56:07.186Z,34.12
2022-08-03T08:58:42.005Z,34.32
2022-08-03T09:01:08.818Z,34.55
2022-08-03T09:03:35.695Z,34.74
2022-08-03T09:06:03.388Z,34.86
2022-08-03T09:08:31.596Z,35.00
2022-08-03T09:10:58.659Z,35.18
2022-08-03T09:13:25.753Z,35.22
2022-08-03T09:16:12.234Z,35.37
2022-08-03T09:18:40.077Z,35.48
2022-08-03T09:21:36.013Z,35.61
2022-08-03T09:24:06.304Z,35.66
2022-08-03T09:26:37.371Z,35.74
2022-08-03T09:29:13.782Z,35.94
2022-08-03T09:31:46.894Z,35.95
2022-08-03T09:34:18.584Z,35.98
2022-08-03T09:36:49.760Z,36.01
2022-08-03T09:39:17.657Z,36.15
2022-08-03T09:42:03.973Z,36.32
2022-08-03T09:44:37.935Z,36.44
2022-08-03T09:47:06.111Z,36.52
2022-08-03T09:49:33.381Z,36.66
2022-08-03T09:52:33.235Z,36.77
2022-08-03T09:55:03.027Z,37.01
2022-08-03T09:57:32.505Z,37.21
2022-08-03T10:00:14.379Z,37.06
2022-08-03T10:02:43.895Z,36.91
2022-08-03T10:05:17.761Z,36.93
2022-08-03T10:07:50.034Z,36.89
2022-08-03T10:10:30.727Z,36.95
2022-08-03T10:13:00.292Z,37.26
2022-08-03T10:16:23.181Z,37.38
2022-08-03T10:18:14.762Z,37.50
2022-08-03T10:20:50.123Z,37.41
2022-08-03T10:23:18.976Z,37.38
2022-08-03T10:25:55.019Z,37.51
2022-08-03T10:28:22.487Z,37.65
2022-08-03T10:30:51.691Z,37.80
2022-08-03T10:33:49.804Z,37.88
2022-08-03T10:36:09.617Z,37.95
2022-08-03T10:38:43.341Z,38.10
2022-08-03T10:41:11.393Z,38.03
2022-08-03T10:43:49.243Z,38.01
2022-08-03T10:46:17.928Z,38.20
2022-08-03T10:48:45.746Z,38.31
2022-08-03T10:51:13.396Z,38.45
2022-08-03T10:53:50.151Z,38.34
2022-08-03T10:56:52.569Z,38.41
2022-08-03T10:59:45.900Z,38.37
2022-08-03T11:02:14.704Z,38.32
2022-08-03T11:04:42.144Z,38.36
2022-08-03T11:07:18.058Z,38.56
2022-08-03T11:09:49.978Z,38.68
2022-08-03T11:12:32.151Z,38.82
2022-08-03T11:15:08.748Z,38.98
2022-08-03T11:17:46.285Z,39.06
2022-08-03T11:20:52.212Z,39.13
2022-08-03T11:24:04.408Z,39.36
2022-08-03T11:26:33.703Z,39.62
2022-08-03T11:29:31.688Z,39.51
2022-08-03T11:31:58.779Z,39.38
2022-08-03T11:34:26.251Z,39.11
2022-08-03T11:37:23.295Z,38.62
2022-08-03T11:39:54.860Z,38.46
2022-08-03T11:42:24.412Z,38.37
2022-08-03T11:44:52.680Z,38.17
2022-08-03T11:47:21.198Z,37.97
2022-08-03T11:49:48.972Z,38.07
2022-08-03T11:52:17.706Z,38.25
2022-08-03T11:54:44.645Z,38.43
2022-08-03T11:57:11.745Z,38.69
2022-08-03T11:59:38.938Z,38.81
2022-08-03T12:02:08.091Z,38.96
2022-08-03T12:04:58.409Z,39.34
2022-08-03T12:08:03.061Z,39.60
2022-08-03T12:10:15.730Z,39.84
2022-08-03T12:12:46.830Z,39.86
2022-08-03T12:15:14.274Z,39.78
2022-08-03T12:17:41.733Z,39.81
2022-08-03T12:20:10.495Z,39.94
2022-08-03T12:22:39.454Z,40.07
2022-08-03T12:25:09.972Z,40.10
2022-08-03T12:27:37.163Z,40.09
2022-08-03T12:30:04.958Z,40.15
2022-08-03T12:32:31.772Z,39.96
2022-08-03T12:35:01.521Z,39.50
2022-08-03T12:37:29.090Z,39.08
2022-08-03T12:40:07.944Z,38.69
2022-08-03T12:42:38.401Z,38.38
2022-08-03T12:45:24.744Z,38.05
2022-08-03T12:48:00.123Z,37.86
2022-08-03T12:50:32.126Z,37.61
2022-08-03T12:53:00.635Z,37.44
2022-08-03T12:55:57.043Z,37.31
2022-08-03T12:58:36.110Z,36.89
2022-08-03T13:01:09.450Z,36.67
2022-08-03T13:03:50.221Z,36.53
2022-08-03T13:06:24.880Z,36.24
2022-08-03T13:09:08.060Z,36.01
2022-08-03T13:11:57.375Z,35.95
2022-08-03T13:14:23.639Z,35.92
2022-08-03T13:16:50.577Z,35.85
2022-08-03T13:19:17.601Z,35.77
2022-08-03T13:21:53.614Z,35.75
2022-08-03T13:24:32.823Z,35.76
2022-08-03T13:27:00.640Z,35.73
2022-08-03T13:29:47.406Z,35.59
2022-08-03T13:32:14.512Z,35.50
2022-08-03T13:34:41.319Z,35.47
2022-08-03T13:37:19.425Z,35.46
2022-08-03T13:39:57.724Z,35.51
2022-08-03T13:42:27.029Z,35.45
2022-08-03T13:44:53.954Z,35.41
2022-08-03T13:47:21.043Z,35.34
2022-08-03T13:50:00.542Z,35.36
2022-08-03T13:52:31.998Z,35.32
2022-08-03T13:54:58.966Z,35.29
2022-08-03T13:58:11.350Z,35.31
2022-08-03T14:00:13.556Z,35.16
2022-08-03T14:02:56.172Z,35.15
2022-08-03T14:05:25.239Z,35.17
2022-08-03T14:07:51.908Z,35.13
2022-08-03T14:10:23.515Z,35.08
2022-08-03T14:12:50.325Z,35.09
2022-08-03T14:15:17.167Z,35.04
2022-08-03T14:17:49.863Z,35.08
2022-08-03T14:20:37.303Z,35.02
2022-08-03T14:23:03.669Z,34.82
2022-08-03T14:25:31.702Z,34.68
2022-08-03T14:28:10.476Z,34.63
2022-08-03T14:30:37.316Z,34.58
2022-08-03T14:33:04.041Z,34.50
2022-08-03T14:35:30.756Z,34.43
2022-08-03T14:37:57.386Z,34.40
2022-08-03T14:40:24.165Z,34.38
2022-08-03T14:42:51.048Z,34.38
2022-08-03T14:45:20.483Z,34.36
2022-08-03T14:50:34.710Z,34.34
2022-08-03T14:50:42.859Z,34.26
2022-08-03T14:53:12.314Z,34.19
2022-08-03T14:55:49.845Z,34.16
2022-08-03T14:58:27.571Z,34.06
2022-08-03T15:00:55.572Z,33.92
2022-08-03T15:03:26.141Z,33.91
2022-08-03T15:05:54.107Z,33.82
2022-08-03T15:08:22.498Z,33.76
2022-08-03T15:10:49.837Z,33.79
2022-08-03T15:13:17.972Z,33.80
2022-08-03T15:15:44.677Z,33.78
2022-08-03T15:18:11.819Z,33.80
2022-08-03T15:20:44.934Z,33.78
2022-08-03T15:23:13.458Z,33.78
2022-08-03T15:26:29.453Z,33.80
2022-08-03T15:28:26.883Z,33.81
2022-08-03T15:30:53.841Z,33.82
2022-08-03T15:33:20.690Z,33.81
2022-08-03T15:35:47.833Z,33.77
2022-08-03T15:38:14.890Z,33.77
2022-08-03T15:40:41.923Z,33.75
2022-08-03T15:43:08.766Z,33.67
2022-08-03T15:45:36.511Z,33.59
2022-08-03T15:48:07.307Z,33.54
2022-08-03T15:50:34.576Z,33.55
2022-08-03T15:53:01.228Z,33.52
2022-08-03T15:55:27.981Z,33.58
2022-08-03T15:59:09.330Z,33.60
2022-08-03T16:00:43.615Z,33.58
2022-08-03T16:03:10.722Z,33.60
2022-08-03T16:05:37.500Z,33.55
2022-08-03T16:08:07.015Z,33.48
2022-08-03T16:10:35.922Z,33.39
2022-08-03T16:13:02.751Z,33.32
2022-08-03T16:15:29.517Z,33.28
2022-08-03T16:17:57.218Z,33.13
2022-08-03T16:20:31.656Z,33.08
2022-08-03T16:23:10.530Z,33.07
2022-08-03T16:25:42.738Z,33.02
2022-08-03T16:28:17.150Z,32.98
2022-08-03T16:30:46.020Z,32.98
2022-08-03T16:33:16.846Z,32.96
2022-08-03T16:35:45.915Z,32.96
2022-08-03T16:38:18.143Z,32.96
2022-08-03T16:40:47.236Z,32.96
2022-08-03T16:43:18.928Z,32.93
2022-08-03T16:45:49.107Z,32.80
2022-08-03T16:48:17.022Z,32.73
2022-08-03T16:50:44.539Z,32.72
2022-08-03T16:53:16.746Z,32.70
2022-08-03T16:55:53.463Z,32.70
2022-08-03T16:58:24.445Z,32.66
2022-08-03T17:01:21.116Z,32.62
2022-08-03T17:04:02.564Z,32.60
2022-08-03T17:06:34.314Z,32.61
2022-08-03T17:09:03.113Z,32.62
2022-08-03T17:11:33.074Z,32.60
2022-08-03T17:14:00.345Z,32.57
2022-08-03T17:16:27.533Z,32.57
2022-08-03T17:19:02.007Z,32.54
2022-08-03T17:21:32.283Z,32.55
2022-08-03T17:24:19.870Z,32.49
2022-08-03T17:26:49.848Z,32.49
2022-08-03T17:29:23.220Z,32.46
2022-08-03T17:31:53.080Z,32.44
2022-08-03T17:34:21.046Z,32.43
2022-08-03T17:37:27.171Z,32.42
2022-08-03T17:39:58.220Z,32.36
2022-08-03T17:42:39.120Z,32.33
2022-08-03T17:45:07.262Z,32.26
2022-08-03T17:47:41.951Z,32.18
2022-08-03T17:50:24.724Z,32.07
2022-08-03T17:53:06.802Z,31.99
2022-08-03T17:55:57.427Z,31.95
2022-08-03T17:58:55.115Z,31.91
2022-08-03T18:02:02.189Z,31.88
2022-08-03T18:04:37.469Z,31.83
2022-08-03T18:07:12.558Z,31.81
2022-08-03T18:10:04.392Z,31.80
2022-08-03T18:12:40.394Z,31.75
2022-08-03T18:15:21.429Z,31.68
2022-08-03T18:17:55.040Z,31.66
2022-08-03T18:20:34.013Z,31.61
2022-08-03T18:23:04.682Z,31.43
2022-08-03T18:25:45.519Z,31.16
2022-08-03T18:28:18.765Z,31.09
2022-08-03T18:30:53.641Z,31.05
2022-08-03T18:34:17.446Z,30.98
2022-08-03T18:36:21.653Z,30.90
2022-08-03T18:38:51.832Z,30.78
2022-08-03T18:41:32.840Z,30.67
2022-08-03T18:44:06.650Z,30.57
2022-08-03T18:47:07.541Z,30.47
2022-08-03T18:49:57.439Z,30.42
2022-08-03T18:52:45.957Z,30.34
2022-08-03T18:55:35.517Z,30.21
2022-08-03T18:58:15.883Z,30.07
2022-08-03T19:01:15.264Z,29.92
2022-08-03T19:04:12.617Z,29.76
2022-08-03T19:06:48.283Z,29.60
2022-08-03T19:09:28.081Z,29.49
2022-08-03T19:12:12.504Z,29.37
2022-08-03T19:14:45.879Z,29.25
2022-08-03T19:17:14.150Z,29.11
2022-08-03T19:19:50.776Z,28.97
2022-08-03T19:22:21.473Z,28.89
2022-08-03T19:24:51.932Z,28.83
2022-08-03T19:27:21.306Z,28.69
2022-08-03T19:29:59.913Z,28.58
2022-08-03T19:32:29.616Z,28.53
2022-08-03T19:34:59.379Z,28.48
2022-08-03T19:37:38.059Z,28.40
2022-08-03T19:40:10.205Z,28.34
2022-08-03T19:42:40.924Z,28.30
2022-08-03T19:45:13.829Z,28.27
2022-08-03T19:48:09.708Z,28.21
2022-08-03T19:50:37.871Z,28.15
2022-08-03T19:53:13.233Z,28.12
2022-08-03T19:55:47.500Z,28.15
2022-08-03T19:58:17.787Z,28.21
2022-08-03T20:00:55.676Z,28.24
2022-08-03T20:03:24.822Z,28.22
2022-08-03T20:05:54.209Z,28.19
2022-08-03T20:08:22.171Z,28.16
2022-08-03T20:10:49.725Z,28.14
2022-08-03T20:13:19.471Z,28.07
2022-08-03T20:15:46.538Z,27.91
2022-08-03T20:18:16.922Z,27.75
2022-08-03T20:20:48.256Z,27.62
2022-08-03T20:23:19.851Z,27.54
2022-08-03T20:25:58.590Z,27.47
2022-08-03T20:28:50.519Z,27.36
2022-08-03T20:31:18.912Z,27.35
2022-08-03T20:33:49.018Z,27.35
2022-08-03T20:36:17.937Z,27.37
2022-08-03T20:38:47.386Z,27.39
2022-08-03T20:41:19.006Z,27.39
2022-08-03T20:43:46.453Z,27.36
2022-08-03T20:49:06.424Z,27.37
2022-08-03T20:51:50.100Z,27.40
2022-08-03T20:54:30.547Z,27.40
2022-08-03T20:57:00.523Z,27.36
2022-08-03T20:59:47.004Z,27.32
2022-08-03T21:02:29.015Z,27.29
2022-08-03T21:04:58.274Z,27.29
2022-08-03T21:07:45.966Z,27.31
2022-08-03T21:10:15.636Z,27.29
2022-08-03T21:13:14.055Z,27.30
2022-08-03T21:13:15.109Z,27.28
2022-08-03T21:16:12.410Z,27.20
2022-08-03T21:18:37.429Z,27.17
2022-08-03T21:21:06.337Z,27.20
2022-08-03T21:23:48.146Z,27.25
2022-08-03T21:26:18.085Z,27.22
2022-08-03T21:28:49.112Z,27.23
2022-08-03T21:31:24.248Z,27.24
2022-08-03T21:33:57.512Z,27.19
2022-08-03T21:36:27.877Z,27.18
2022-08-03T21:38:57.471Z,27.17
2022-08-03T21:41:30.613Z,27.15
2022-08-03T21:43:58.136Z,27.12
2022-08-03T21:46:26.673Z,27.07
2022-08-03T21:50:05.702Z,27.04
2022-08-03T21:51:50.634Z,27.01
2022-08-03T21:54:20.803Z,26.94
2022-08-03T21:56:51.466Z,26.85
2022-08-03T21:59:20.319Z,26.77
2022-08-03T22:01:48.826Z,26.65
2022-08-03T22:04:50.267Z,26.65
2022-08-03T22:07:08.611Z,26.65
2022-08-03T22:09:37.067Z,26.68
2022-08-03T22:12:05.707Z,26.69
2022-08-03T22:14:33.177Z,26.69
2022-08-03T22:17:06.258Z,26.64
2022-08-03T22:19:33.081Z,26.68
2022-08-03T22:22:02.044Z,26.69
2022-08-03T22:24:32.075Z,26.72
2022-08-03T22:27:20.926Z,26.63
2022-08-03T22:29:50.674Z,26.62
2022-08-03T22:32:17.428Z,26.59
2022-08-03T22:34:46.829Z,26.59
2022-08-03T22:37:16.238Z,26.56
2022-08-03T22:39:44.721Z,26.56
2022-08-03T22:42:12.011Z,26.54
2022-08-03T22:44:39.333Z,26.50
2022-08-03T22:47:06.300Z,26.49
2022-08-03T22:49:35.562Z,26.48
2022-08-03T22:52:02.368Z,26.46
2022-08-03T22:54:31.807Z,26.45
2022-08-03T22:56:59.255Z,26.43
2022-08-03T22:59:39.260Z,26.40
2022-08-03T23:02:21.233Z,26.43
2022-08-03T23:04:53.825Z,26.37
2022-08-03T23:07:28.720Z,26.39
2022-08-03T23:09:56.589Z,26.33
2022-08-03T23:12:23.828Z,26.32
2022-08-03T23:14:57.788Z,26.29
2022-08-03T23:17:26.973Z,26.21
2022-08-03T23:19:56.086Z,26.16
2022-08-03T23:22:30.378Z,26.11
2022-08-03T23:24:59.010Z,26.11
2022-08-03T23:27:27.887Z,26.16
2022-08-03T23:29:58.441Z,26.21
2022-08-03T23:32:25.173Z,26.17
2022-08-03T23:35:14.274Z,26.17
2022-08-03T23:38:12.319Z,26.16
2022-08-03T23:40:31.363Z,26.16
2022-08-03T23:42:59.519Z,26.10
2022-08-03T23:45:28.125Z,26.08
2022-08-03T23:47:55.168Z,26.09
2022-08-03T23:50:21.919Z,26.07
2022-08-03T23:53:08.119Z,26.09
2022-08-03T23:55:53.180Z,26.06
2022-08-03T23:58:47.424Z,26.02
